createdAt,value
2018-06-13T00:02:32.246Z,69.10
2018-06-13T00:05:00.711Z,70.00
2018-06-13T00:07:32.814Z,69.60
2018-06-13T00:10:03.413Z,69.40
2018-06-13T00:15:01.032Z,70.00
2018-06-13T00:17:33.482Z,69.50
2018-06-13T00:20:03.693Z,69.80
2018-06-13T00:22:34.016Z,69.00
2018-06-13T00:25:02.785Z,69.60
2018-06-13T00:27:34.242Z,68.90
2018-06-13T00:30:04.671Z,69.40
2018-06-13T00:32:34.169Z,70.10
2018-06-13T00:35:03.861Z,70.30
2018-06-13T00:37:35.399Z,71.30
2018-06-13T00:40:03.988Z,70.80
2018-06-13T00:42:34.381Z,69.70
2018-06-13T00:45:03.545Z,70.40
2018-06-13T00:47:34.156Z,69.80
2018-06-13T00:50:04.139Z,69.20
2018-06-13T00:52:33.779Z,69.90
2018-06-13T00:55:04.008Z,70.40
2018-06-13T00:57:33.669Z,69.70
2018-06-13T01:00:03.842Z,70.40
2018-06-13T01:02:34.215Z,69.20
2018-06-13T01:05:02.654Z,69.90
2018-06-13T01:07:31.081Z,70.30
2018-06-13T01:09:59.512Z,70.80
2018-06-13T01:12:35.275Z,70.70
2018-06-13T01:15:03.789Z,70.40
2018-06-13T01:17:33.736Z,69.80
2018-06-13T01:20:04.449Z,70.50
2018-06-13T01:22:34.409Z,69.60
2018-06-13T01:25:04.087Z,70.00
2018-06-13T01:27:37.301Z,70.30
2018-06-13T01:30:06.262Z,70.10
2018-06-13T01:32:34.800Z,71.00
2018-06-13T01:35:03.310Z,70.50
2018-06-13T01:40:05.368Z,69.40
2018-06-13T01:42:34.288Z,70.30
2018-06-13T01:45:03.768Z,69.50
2018-06-13T01:47:34.141Z,70.30
2018-06-13T01:50:04.061Z,68.60
2018-06-13T01:52:34.773Z,68.90
2018-06-13T01:55:03.993Z,68.60
2018-06-13T01:57:33.444Z,69.50
2018-06-13T02:00:02.016Z,69.50
2018-06-13T02:02:30.468Z,70.70
2018-06-13T02:05:05.251Z,70.20
2018-06-13T02:07:33.752Z,69.90
2018-06-13T02:10:02.270Z,69.40
2018-06-13T02:12:35.993Z,70.50
2018-06-13T02:15:04.525Z,70.20
2018-06-13T02:17:33.904Z,69.70
2018-06-13T02:20:05.628Z,69.00
2018-06-13T02:22:34.057Z,69.30
2018-06-13T02:25:02.857Z,69.20
2018-06-13T02:27:34.867Z,68.70
2018-06-13T02:30:04.323Z,69.30
2018-06-13T02:32:33.861Z,70.00
2018-06-13T02:35:04.452Z,69.50
2018-06-13T02:37:32.962Z,69.40
2018-06-13T02:45:05.117Z,69.80
2018-06-13T02:47:34.262Z,70.70
2018-06-13T02:50:03.941Z,70.50
2018-06-13T02:52:32.370Z,70.30
2018-06-13T02:55:04.474Z,69.80
2018-06-13T03:00:29.004Z,70.60
2018-06-13T03:03:01.800Z,70.50
2018-06-13T03:05:33.692Z,70.60
2018-06-13T03:08:04.826Z,71.10
2018-06-13T03:10:34.312Z,70.30
2018-06-13T03:13:04.142Z,70.80
2018-06-13T03:18:03.682Z,69.10
2018-06-13T03:20:36.625Z,68.60
2018-06-13T03:23:06.072Z,70.20
2018-06-13T03:25:35.376Z,69.30
2018-06-13T03:28:04.283Z,70.00
2018-06-13T03:30:35.638Z,70.50
2018-06-13T03:33:04.158Z,70.00
2018-06-13T03:35:32.977Z,70.00
2018-06-13T03:38:04.806Z,69.30
2018-06-13T03:40:34.344Z,69.80
2018-06-13T03:43:04.102Z,69.10
2018-06-13T03:45:33.948Z,68.20
2018-06-13T03:48:05.446Z,69.10
2018-06-13T03:50:33.954Z,68.90
2018-06-13T03:53:04.750Z,69.50
2018-06-13T03:55:35.096Z,69.00
2018-06-13T03:58:03.637Z,69.50
2018-06-13T04:00:33.234Z,70.10
2018-06-13T04:03:07.129Z,69.50
2018-06-13T04:05:35.541Z,68.50
2018-06-13T04:08:04.417Z,70.20
2018-06-13T04:10:34.070Z,69.60
2018-06-13T04:13:03.724Z,70.20
2018-06-13T04:15:36.357Z,69.70
2018-06-13T04:18:05.820Z,69.20
2018-06-13T04:20:34.356Z,69.60
2018-06-13T04:23:04.850Z,69.20
2018-06-13T04:25:34.162Z,69.70
2018-06-13T04:28:03.823Z,68.10
2018-06-13T04:30:34.808Z,68.50
2018-06-13T04:33:04.613Z,68.60
2018-06-13T04:35:34.177Z,69.40
2018-06-13T04:38:05.884Z,67.60
2018-06-13T04:40:34.328Z,67.90
2018-06-13T04:43:03.169Z,69.30
2018-06-13T04:45:32.939Z,69.20
2018-06-13T04:48:01.674Z,69.10
2018-06-13T04:50:33.354Z,68.70
2018-06-13T04:53:03.321Z,67.90
2018-06-13T04:55:34.732Z,68.90
2018-06-13T04:58:04.636Z,68.30
2018-06-13T05:00:34.082Z,67.50
2018-06-13T05:03:03.749Z,69.00
2018-06-13T05:05:34.170Z,68.00
2018-06-13T05:08:02.980Z,66.90
2018-06-13T05:10:35.220Z,66.50
2018-06-13T05:13:04.953Z,66.80
2018-06-13T05:15:33.833Z,66.20
2018-06-13T05:18:03.909Z,67.90
2018-06-13T05:20:32.423Z,67.00
2018-06-13T05:23:03.600Z,66.90
2018-06-13T05:25:33.838Z,68.80
2018-06-13T05:28:04.377Z,70.30
2018-06-13T05:30:33.939Z,71.30
2018-06-13T05:33:04.469Z,71.60
2018-06-13T05:35:33.925Z,72.40
2018-06-13T05:38:04.241Z,72.30
2018-06-13T05:40:36.143Z,72.70
2018-06-13T05:43:05.007Z,72.20
2018-06-13T05:45:34.658Z,72.80
2018-06-13T05:48:04.426Z,73.00
2018-06-13T05:50:33.156Z,73.30
2018-06-13T05:53:05.216Z,72.60
2018-06-13T05:55:34.158Z,72.00
2018-06-13T05:58:04.501Z,72.50
2018-06-13T06:00:34.207Z,72.60
2018-06-13T06:03:05.889Z,71.60
2018-06-13T06:05:34.442Z,71.60
2018-06-13T06:08:03.178Z,71.10
2018-06-13T06:10:33.484Z,71.10
2018-06-13T06:13:02.985Z,70.30
2018-06-13T06:15:31.467Z,70.20
2018-06-13T06:17:59.952Z,69.70
2018-06-13T06:20:28.509Z,70.40
2018-06-13T06:22:56.907Z,69.50
2018-06-13T06:25:25.409Z,70.10
2018-06-13T06:27:54.102Z,68.70
2018-06-13T06:30:22.591Z,68.70
2018-06-13T06:32:51.185Z,67.60
2018-06-13T06:35:22.837Z,67.30
2018-06-13T06:37:51.958Z,67.60
2018-06-13T06:40:20.878Z,67.10
2018-06-13T06:42:51.209Z,67.20
2018-06-13T06:45:21.163Z,67.40
2018-06-13T06:47:50.758Z,66.20
2018-06-13T06:50:21.522Z,67.00
2018-06-13T06:52:50.272Z,66.50
2018-06-13T06:55:18.985Z,65.60
2018-06-13T06:57:47.967Z,65.60
2018-06-13T07:00:16.405Z,64.90
2018-06-13T07:02:57.326Z,65.00
2018-06-13T07:05:25.708Z,64.50
2018-06-13T07:07:54.722Z,65.40
2018-06-13T07:10:23.152Z,65.40
2018-06-13T07:12:51.550Z,65.80
2018-06-13T07:15:20.016Z,65.70
2018-06-13T07:17:48.517Z,65.20
2018-06-13T07:20:16.990Z,65.30
2018-06-13T07:22:45.337Z,64.80
2018-06-13T07:25:13.700Z,65.20
2018-06-13T07:27:42.141Z,66.30
2018-06-13T07:30:10.589Z,64.70
2018-06-13T07:32:39.394Z,65.40
2018-06-13T07:35:08.009Z,65.40
2018-06-13T07:37:36.581Z,65.50
2018-06-13T07:40:05.102Z,64.30
2018-06-13T07:42:33.633Z,64.20
2018-06-13T07:45:02.603Z,64.60
2018-06-13T07:47:31.405Z,64.20
2018-06-13T07:49:59.806Z,65.60
2018-06-13T07:52:28.273Z,64.60
2018-06-13T07:54:56.664Z,63.60
2018-06-13T07:57:25.106Z,63.60
2018-06-13T07:59:53.482Z,63.70
2018-06-13T08:04:50.118Z,62.60
2018-06-13T08:07:18.526Z,62.60
2018-06-13T08:09:46.913Z,62.40
2018-06-13T08:12:15.968Z,60.40
2018-06-13T08:14:44.477Z,62.60
2018-06-13T08:17:13.296Z,61.80
2018-06-13T08:19:41.925Z,61.20
2018-06-13T08:22:10.421Z,61.10
2018-06-13T08:24:50.076Z,62.00
2018-06-13T08:27:18.545Z,60.30
2018-06-13T08:29:47.084Z,59.10
2018-06-13T08:32:15.968Z,61.80
2018-06-13T08:34:44.693Z,60.90
2018-06-13T08:37:13.121Z,59.90
2018-06-13T08:39:41.596Z,61.50
2018-06-13T08:42:10.402Z,61.80
2018-06-13T08:44:38.766Z,59.20
2018-06-13T08:47:07.113Z,59.50
2018-06-13T08:49:35.512Z,60.10
2018-06-13T08:52:03.993Z,60.10
2018-06-13T08:54:32.477Z,60.10
2018-06-13T08:57:01.085Z,59.00
2018-06-13T08:59:29.576Z,59.60
2018-06-13T09:01:58.114Z,56.90
2018-06-13T09:04:26.664Z,56.80
2018-06-13T09:07:14.234Z,57.30
2018-06-13T09:09:46.210Z,57.10
2018-06-13T09:12:14.770Z,57.80
2018-06-13T09:14:58.228Z,59.30
2018-06-13T09:17:26.646Z,59.10
2018-06-13T09:19:55.072Z,58.80
2018-06-13T09:22:23.540Z,59.50
2018-06-13T09:24:51.908Z,59.30
2018-06-13T09:27:20.400Z,59.30
2018-06-13T09:29:48.853Z,59.00
2018-06-13T09:32:43.488Z,58.70
2018-06-13T09:35:11.978Z,59.40
2018-06-13T09:37:56.472Z,58.20
2018-06-13T09:40:28.200Z,58.30
2018-06-13T09:45:41.427Z,57.70
2018-06-13T09:48:42.272Z,58.20
2018-06-13T09:51:10.740Z,58.70
2018-06-13T09:53:39.378Z,57.30
2018-06-13T09:58:55.018Z,58.00
2018-06-13T10:01:28.952Z,58.70
2018-06-13T10:03:57.237Z,58.40
2018-06-13T10:06:27.778Z,59.00
2018-06-13T10:08:56.249Z,59.10
2018-06-13T10:14:29.770Z,59.80
2018-06-13T10:16:58.341Z,59.90
2018-06-13T10:19:26.825Z,60.60
2018-06-13T10:21:55.200Z,59.10
2018-06-13T10:24:23.757Z,57.70
2018-06-13T10:26:52.174Z,57.30
2018-06-13T10:29:20.546Z,56.20
2018-06-13T10:31:55.630Z,59.50
2018-06-13T10:34:24.055Z,58.50
2018-06-13T10:36:52.530Z,55.60
2018-06-13T10:39:26.734Z,58.80
2018-06-13T10:41:55.114Z,59.50
2018-06-13T10:44:23.578Z,59.60
2018-06-13T10:46:52.024Z,59.70
2018-06-13T10:49:20.438Z,59.20
2018-06-13T10:51:49.933Z,57.70
2018-06-13T10:54:18.438Z,59.00
2018-06-13T10:56:46.824Z,59.10
2018-06-13T10:59:15.255Z,57.00
2018-06-13T11:04:23.603Z,57.00
2018-06-13T11:06:52.116Z,58.00
2018-06-13T11:09:20.621Z,58.00
2018-06-13T11:11:49.070Z,58.50
2018-06-13T11:14:17.602Z,56.30
2018-06-13T11:16:46.166Z,56.70
2018-06-13T11:19:25.046Z,57.20
2018-06-13T11:21:53.537Z,56.50
2018-06-13T11:24:22.026Z,57.30
2018-06-13T11:26:53.699Z,56.90
2018-06-13T11:29:22.295Z,57.60
2018-06-13T11:31:55.097Z,58.60
2018-06-13T11:34:23.640Z,57.70
2018-06-13T11:36:52.612Z,56.60
2018-06-13T11:39:20.970Z,56.90
2018-06-13T11:41:49.466Z,56.90
2018-06-13T11:44:17.938Z,55.60
2018-06-13T11:46:46.357Z,57.30
2018-06-13T11:49:14.909Z,56.00
2018-06-13T11:51:43.548Z,58.80
2018-06-13T11:54:12.263Z,56.60
2018-06-13T11:56:41.951Z,56.40
2018-06-13T11:59:10.375Z,56.70
2018-06-13T12:04:24.416Z,56.00
2018-06-13T12:06:54.328Z,55.00
2018-06-13T12:09:31.208Z,54.00
2018-06-13T12:12:00.209Z,53.50
2018-06-13T12:14:28.943Z,54.10
2018-06-13T12:16:57.987Z,53.20
2018-06-13T12:19:26.650Z,53.70
2018-06-13T12:21:56.358Z,52.00
2018-06-13T12:24:25.075Z,53.50
2018-06-13T12:26:53.538Z,51.50
2018-06-13T12:29:21.948Z,52.00
2018-06-13T12:31:51.609Z,51.50
2018-06-13T12:34:20.777Z,50.10
2018-06-13T12:36:49.278Z,51.20
2018-06-13T12:39:19.616Z,50.70
2018-06-13T12:41:51.686Z,49.00
2018-06-13T12:44:20.136Z,49.50
2018-06-13T12:46:49.302Z,50.50
2018-06-13T12:49:20.052Z,50.50
2018-06-13T12:51:52.717Z,50.30
2018-06-13T12:54:26.735Z,51.80
2018-06-13T12:56:58.500Z,51.40
2018-06-13T12:59:28.372Z,51.00
2018-06-13T13:01:57.761Z,52.80
2018-06-13T13:04:26.771Z,50.70
2018-06-13T13:06:58.525Z,52.40
2018-06-13T13:09:30.673Z,52.30
2018-06-13T13:12:00.405Z,52.80
2018-06-13T13:14:32.815Z,52.10
2018-06-13T13:17:03.395Z,50.90
2018-06-13T13:19:32.058Z,51.90
2018-06-13T13:22:00.869Z,50.00
2018-06-13T13:24:32.472Z,50.50
2018-06-13T13:27:03.419Z,51.10
2018-06-13T13:29:32.653Z,52.60
2018-06-13T13:32:02.264Z,51.60
2018-06-13T13:34:30.833Z,51.00
2018-06-13T13:36:59.415Z,51.30
2018-06-13T13:39:28.668Z,49.50
2018-06-13T13:41:57.586Z,51.20
2018-06-13T13:44:26.940Z,50.30
2018-06-13T13:46:55.538Z,49.60
2018-06-13T13:49:26.061Z,50.50
2018-06-13T13:51:55.216Z,50.60
2018-06-13T13:54:25.834Z,51.70
2018-06-13T13:56:54.947Z,50.40
2018-06-13T13:59:23.579Z,49.60
2018-06-13T14:01:52.391Z,52.10
2018-06-13T14:04:22.984Z,49.50
2018-06-13T14:06:53.945Z,52.30
2018-06-13T14:09:23.150Z,52.20
2018-06-13T14:11:52.322Z,52.80
2018-06-13T14:16:49.616Z,51.70
2018-06-13T14:21:55.424Z,49.80
2018-06-13T14:24:23.969Z,50.20
2018-06-13T14:26:53.001Z,49.50
2018-06-13T14:29:21.880Z,52.50
2018-06-13T14:31:51.202Z,50.30
2018-06-13T14:34:19.710Z,51.90
2018-06-13T14:36:48.984Z,50.60
2018-06-13T14:39:18.353Z,51.20
2018-06-13T14:41:46.961Z,53.00
2018-06-13T14:44:16.221Z,53.40
2018-06-13T14:46:45.807Z,53.40
2018-06-13T14:49:15.164Z,49.10
2018-06-13T14:51:52.957Z,49.40
2018-06-13T14:54:31.805Z,51.60
2018-06-13T14:57:00.919Z,51.10
2018-06-13T14:59:30.751Z,49.00
2018-06-13T15:02:00.180Z,50.70
2018-06-13T15:04:34.757Z,50.00
2018-06-13T15:07:06.982Z,51.30
2018-06-13T15:09:36.286Z,50.60
2018-06-13T15:12:05.223Z,48.40
2018-06-13T15:14:35.293Z,51.30
2018-06-13T15:17:03.884Z,52.30
2018-06-13T15:19:34.000Z,52.60
2018-06-13T15:22:12.878Z,53.50
2018-06-13T15:24:45.905Z,52.70
2018-06-13T15:27:16.043Z,50.50
2018-06-13T15:29:44.905Z,50.40
2018-06-13T15:32:23.720Z,50.00
2018-06-13T15:34:52.187Z,50.10
2018-06-13T15:37:21.325Z,53.10
2018-06-13T15:39:56.827Z,50.20
2018-06-13T15:42:25.486Z,50.30
2018-06-13T15:45:02.179Z,51.30
2018-06-13T15:47:30.852Z,52.00
2018-06-13T15:49:59.318Z,50.90
2018-06-13T15:52:28.815Z,52.50
2018-06-13T15:54:57.334Z,52.00
2018-06-13T15:57:26.554Z,49.90
2018-06-13T16:00:09.277Z,49.40
2018-06-13T16:02:54.516Z,51.50
2018-06-13T16:05:23.897Z,51.70
2018-06-13T16:07:52.683Z,51.70
2018-06-13T16:10:31.301Z,49.90
2018-06-13T16:12:59.792Z,52.10
2018-06-13T16:15:28.262Z,51.70
2018-06-13T16:17:57.019Z,51.10
2018-06-13T16:20:25.461Z,53.70
2018-06-13T16:22:57.261Z,53.50
2018-06-13T16:25:26.049Z,54.00
2018-06-13T16:27:54.766Z,54.00
2018-06-13T16:30:23.340Z,51.80
2018-06-13T16:32:51.978Z,53.60
2018-06-13T16:35:20.380Z,55.00
2018-06-13T16:37:49.624Z,56.10
2018-06-13T16:40:20.120Z,56.00
2018-06-13T16:42:48.638Z,53.40
2018-06-13T16:45:17.854Z,53.80
2018-06-13T16:47:46.268Z,53.70
2018-06-13T16:50:25.924Z,50.00
2018-06-13T16:53:05.679Z,51.10
2018-06-13T16:55:35.149Z,52.60
2018-06-13T16:58:03.824Z,53.80
2018-06-13T17:00:32.714Z,49.60
2018-06-13T17:03:01.052Z,54.10
2018-06-13T17:05:29.965Z,52.30
2018-06-13T17:08:03.242Z,53.90
2018-06-13T17:10:31.735Z,50.80
2018-06-13T17:13:00.202Z,51.90
2018-06-13T17:15:28.772Z,51.00
2018-06-13T17:17:57.162Z,54.40
2018-06-13T17:22:53.605Z,55.30
2018-06-13T17:25:21.964Z,52.90
2018-06-13T17:27:50.430Z,54.40
2018-06-13T17:30:18.945Z,54.40
2018-06-13T17:32:49.113Z,53.00
2018-06-13T17:35:17.595Z,54.50
2018-06-13T17:37:47.788Z,55.40
2018-06-13T17:40:16.611Z,55.20
2018-06-13T17:42:45.153Z,54.80
2018-06-13T17:45:13.702Z,53.50
2018-06-13T17:47:42.320Z,53.30
2018-06-13T17:50:14.261Z,54.60
2018-06-13T17:52:42.821Z,54.50
2018-06-13T17:55:12.009Z,56.70
2018-06-13T17:57:40.469Z,55.80
2018-06-13T18:00:08.974Z,55.20
2018-06-13T18:02:38.398Z,55.20
2018-06-13T18:05:06.837Z,53.50
2018-06-13T18:07:35.312Z,53.30
2018-06-13T18:10:04.657Z,54.40
2018-06-13T18:12:33.134Z,54.80
2018-06-13T18:15:02.529Z,54.40
2018-06-13T18:17:31.086Z,54.10
2018-06-13T18:19:59.670Z,56.00
2018-06-13T18:22:28.196Z,54.70
2018-06-13T18:24:56.715Z,55.50
2018-06-13T18:27:25.160Z,54.40
2018-06-13T18:32:21.822Z,55.10
2018-06-13T18:34:50.222Z,55.80
2018-06-13T18:37:18.701Z,56.00
2018-06-13T18:39:47.203Z,55.20
2018-06-13T18:42:15.585Z,55.40
2018-06-13T18:44:44.141Z,55.00
2018-06-13T18:47:12.477Z,55.80
2018-06-13T18:49:41.041Z,56.10
2018-06-13T18:52:10.113Z,55.40
2018-06-13T18:54:38.591Z,55.90
2018-06-13T18:57:08.978Z,56.10
2018-06-13T18:59:37.752Z,56.20
2018-06-13T19:02:09.595Z,56.60
2018-06-13T19:04:38.067Z,56.30
2018-06-13T19:07:06.570Z,56.20
2018-06-13T19:09:36.051Z,55.80
2018-06-13T19:15:16.611Z,56.90
2018-06-13T19:17:45.090Z,57.40
2018-06-13T19:20:15.214Z,57.30
2018-06-13T19:22:51.695Z,58.00
2018-06-13T19:25:20.357Z,57.60
2018-06-13T19:27:48.844Z,58.10
2018-06-13T19:30:17.306Z,58.30
2018-06-13T19:32:45.713Z,58.40
2018-06-13T19:35:14.300Z,58.10
2018-06-13T19:37:42.699Z,58.00
2018-06-13T19:40:11.150Z,57.60
2018-06-13T19:42:49.948Z,58.40
2018-06-13T19:45:18.480Z,58.00
2018-06-13T19:47:52.120Z,58.50
2018-06-13T19:50:20.516Z,58.60
2018-06-13T19:52:55.719Z,58.10
2018-06-13T19:55:29.758Z,58.80
2018-06-13T19:58:00.504Z,59.00
2018-06-13T20:00:29.079Z,58.80
2018-06-13T20:03:02.851Z,58.40
2018-06-13T20:05:36.664Z,58.70
2018-06-13T20:08:05.429Z,58.00
2018-06-13T20:10:35.416Z,57.70
2018-06-13T20:15:44.558Z,57.10
2018-06-13T20:18:18.352Z,57.00
2018-06-13T20:20:47.386Z,57.10
2018-06-13T20:23:16.039Z,57.20
2018-06-13T20:25:49.824Z,57.60
2018-06-13T20:28:23.662Z,57.90
2018-06-13T20:30:57.535Z,58.20
2018-06-13T20:33:25.972Z,58.00
2018-06-13T20:35:54.892Z,58.70
2018-06-13T20:38:23.340Z,58.30
2018-06-13T20:40:51.765Z,59.80
2018-06-13T20:43:20.758Z,61.20
2018-06-13T20:45:49.253Z,59.20
2018-06-13T20:48:17.785Z,58.00
2018-06-13T20:50:46.162Z,58.00
2018-06-13T20:53:14.579Z,58.30
2018-06-13T20:55:43.074Z,58.30
2018-06-13T20:58:11.449Z,58.60
2018-06-13T21:00:39.981Z,59.20
2018-06-13T21:03:08.361Z,59.40
2018-06-13T21:05:36.737Z,59.40
2018-06-13T21:08:05.288Z,59.70
2018-06-13T21:10:33.641Z,59.60
2018-06-13T21:13:02.185Z,60.10
2018-06-13T21:15:30.623Z,60.20
2018-06-13T21:17:59.016Z,60.20
2018-06-13T21:20:27.497Z,60.70
2018-06-13T21:22:56.052Z,61.10
2018-06-13T21:25:24.826Z,61.30
2018-06-13T21:27:54.093Z,61.20
2018-06-13T21:30:22.518Z,61.60
2018-06-13T21:32:51.005Z,61.60
2018-06-13T21:35:19.466Z,61.50
2018-06-13T21:37:47.942Z,61.30
2018-06-13T21:40:16.398Z,61.80
2018-06-13T21:42:44.716Z,62.20
2018-06-13T21:45:13.083Z,61.90
2018-06-13T21:47:41.507Z,62.50
2018-06-13T21:50:11.010Z,62.80
2018-06-13T21:52:39.376Z,62.80
2018-06-13T21:55:07.822Z,63.20
2018-06-13T21:57:36.221Z,63.50
2018-06-13T22:00:07.323Z,63.10
2018-06-13T22:02:35.652Z,63.10
2018-06-13T22:05:04.047Z,63.40
2018-06-13T22:07:32.437Z,63.50
2018-06-13T22:10:00.866Z,63.30
2018-06-13T22:12:29.264Z,63.00
2018-06-13T22:14:59.894Z,63.20
2018-06-13T22:19:56.586Z,63.40
2018-06-13T22:22:24.962Z,63.50
2018-06-13T22:24:53.334Z,64.10
2018-06-13T22:27:21.695Z,63.90
2018-06-13T22:29:50.005Z,63.80
2018-06-13T22:32:18.475Z,64.10
2018-06-13T22:34:46.897Z,64.00
2018-06-13T22:37:15.364Z,63.90
2018-06-13T22:39:43.805Z,64.10
2018-06-13T22:42:12.166Z,64.40
2018-06-13T22:44:40.822Z,64.30
2018-06-13T22:47:09.164Z,64.70
2018-06-13T22:49:37.614Z,64.40
2018-06-13T22:52:06.225Z,64.40
2018-06-13T22:54:34.631Z,64.10
2018-06-13T22:57:03.222Z,64.50
2018-06-13T22:59:31.627Z,64.60
2018-06-13T23:02:00.119Z,64.80
2018-06-13T23:04:28.636Z,64.60
2018-06-13T23:06:57.108Z,64.70
2018-06-13T23:09:25.709Z,64.70
2018-06-13T23:11:54.139Z,64.90
2018-06-13T23:14:22.721Z,64.90
2018-06-13T23:16:51.239Z,64.90
2018-06-13T23:19:19.686Z,64.90
2018-06-13T23:21:48.047Z,65.10
2018-06-13T23:24:16.537Z,64.90
2018-06-13T23:29:13.049Z,65.10
2018-06-13T23:31:41.523Z,65.40
2018-06-13T23:34:10.045Z,65.50
2018-06-13T23:36:38.373Z,65.40
2018-06-13T23:39:07.553Z,65.30
2018-06-13T23:41:35.988Z,65.60
2018-06-13T23:44:04.590Z,65.80
2018-06-13T23:46:33.313Z,65.80
2018-06-13T23:49:01.633Z,66.00
2018-06-13T23:51:30.109Z,66.00
2018-06-13T23:53:58.591Z,65.80
2018-06-13T23:56:27.032Z,66.20
2018-06-13T23:58:55.420Z,65.90
